Time;durP1;ratioP1;P1;durP2;ratioP2;P2;SDS_P1;SDS_P2;PMS_P1;PMS_P2;Temp;Humidity;BMP_temperature;BMP_pressure;BME280_temperature;BME280_humidity;BME280_pressure;Samples;Min_cycle;Max_cycle;Signal;HPM_P1;HPM_P2
2021/09/21 00:01:04;;;;;;;;;;;;;;;-144.99;92.03;52466.44;5082194;28;20003;-73
2021/09/21 00:03:30;;;;;;;;;;;;;;;-144.99;92.16;52476.63;5073716;28;19976;-74
2021/09/21 00:05:56;;;;;;;;;;;;;;;-144.99;92.02;52435.88;5079245;28;19981;-74
2021/09/21 00:08:23;;;;;;;;;;;;;;;-144.99;91.85;52460.31;5077510;28;20380;-75
2021/09/21 00:10:49;;;;;;;;;;;;;;;-144.99;91.74;52460.31;5081345;28;19980;-74
2021/09/21 00:13:16;;;;;;;;;;;;;;;-144.99;91.84;52480.72;5077918;28;19979;-74
2021/09/21 00:15:42;;;;;;;;;;;;;;;-144.99;91.70;52435.88;5075227;28;20011;-74
2021/09/21 00:18:10;;;;;;;;;;;;;;;-144.99;91.66;52439.94;5078046;28;20103;-73
2021/09/21 00:20:36;;;;;;;;;;;;;;;-144.99;91.67;52454.22;5085490;28;19997;-73
2021/09/21 00:23:03;;;;;;;;;;;;;;;-144.99;91.87;52427.72;5081556;28;20006;-73
2021/09/21 00:25:29;;;;;;;;;;;;;;;-144.99;91.96;52452.16;5087427;28;20553;-74
2021/09/21 00:27:56;;;;;;;;;;;;;;;-144.99;92.07;52444.03;5084776;28;19983;-73
2021/09/21 00:30:23;;;;;;;;;;;;;;;-144.99;91.95;52466.44;5098195;22;20018;-77
2021/09/21 00:33:00;;;;;;;;;;;;;;;-144.99;92.08;52490.91;5065076;28;19976;-78
2021/09/21 00:35:28;;;;;;;;;;;;;;;-144.99;91.99;52474.59;5070059;28;20064;-78
2021/09/21 00:37:55;;;;;;;;;;;;;;;-144.99;92.19;52427.72;5069673;28;20412;-78
2021/09/21 00:40:21;;;;;;;;;;;;;;;-144.99;92.30;52452.16;5069764;28;19993;-78
2021/09/21 00:42:48;;;;;;;;;;;;;;;-144.99;92.26;52460.31;5081837;28;19951;-78
2021/09/21 00:45:17;;;;;;;;;;;;;;;-144.99;92.44;52423.63;5076863;28;19972;-78
2021/09/21 00:47:43;;;;;;;;;;;;;;;-144.99;92.47;52492.94;5069612;28;20027;-78
2021/09/21 00:50:10;;;;;;;;;;;;;;;-144.99;92.49;52431.78;5068578;28;20038;-78
2021/09/21 00:52:38;;;;;;;;;;;;;;;-144.99;92.39;52415.47;5065050;28;20063;-78
2021/09/21 00:55:05;;;;;;;;;;;;;;;-144.99;92.47;52452.16;5072114;28;19991;-78
2021/09/21 00:57:31;;;;;;;;;;;;;;;-144.99;93.12;52460.31;5072792;28;19977;-77
2021/09/21 00:59:58;;;;;;;;;;;;;;;-144.99;93.21;52439.94;5069960;28;19996;-78
2021/09/21 01:02:24;;;;;;;;;;;;;;;-144.99;93.33;52478.66;5066699;28;20015;-77
2021/09/21 01:04:51;;;;;;;;;;;;;;;-144.99;93.47;52403.25;5068545;28;19983;-77
2021/09/21 01:07:17;;;;;;;;;;;;;;;-144.99;93.50;52482.75;5068917;28;20018;-77
2021/09/21 01:09:45;;;;;;;;;;;;;;;-144.99;93.47;52407.31;5069185;28;20015;-79
2021/09/21 01:12:12;;;;;;;;;;;;;;;-144.99;93.30;52427.72;5073211;28;20031;-79
2021/09/21 01:14:38;;;;;;;;;;;;;;;-144.99;93.22;52431.78;5068108;28;20155;-80
2021/09/21 01:17:07;;;;;;;;;;;;;;;-144.99;93.13;52439.94;5072449;28;20023;-80
2021/09/21 01:19:33;;;;;;;;;;;;;;;-144.99;93.02;52439.94;5069960;28;20011;-81
2021/09/21 01:22:05;;;;;;;;;;;;;;;-144.99;92.94;52384.91;5068970;28;20454;-81
2021/09/21 01:24:33;;;;;;;;;;;;;;;-144.99;92.91;52441.97;5069205;28;20083;-80
2021/09/21 01:26:59;;;;;;;;;;;;;;;-144.99;93.57;52446.06;5080313;28;19998;-77
2021/09/21 01:29:26;;;;;;;;;;;;;;;-144.99;93.76;52417.53;5070499;28;20006;-77
2021/09/21 01:31:52;;;;;;;;;;;;;;;-144.99;93.88;52435.88;5071568;28;20062;-77
2021/09/21 01:34:20;;;;;;;;;;;;;;;-144.99;94.11;52464.41;5071888;28;19971;-77
2021/09/21 01:36:46;;;;;;;;;;;;;;;-144.99;94.20;52448.09;5071026;28;19988;-82
2021/09/21 01:39:14;;;;;;;;;;;;;;;-144.99;94.36;52405.28;5074770;28;20090;-81
2021/09/21 01:41:41;;;;;;;;;;;;;;;-144.99;94.46;52452.16;5069868;28;19988;-80
2021/09/21 01:44:07;;;;;;;;;;;;;;;-144.99;94.53;52444.03;5071748;28;19973;-80
2021/09/21 01:46:34;;;;;;;;;;;;;;;-144.99;94.50;52460.31;5071788;28;20016;-81
2021/09/21 01:49:00;;;;;;;;;;;;;;;-144.99;94.50;52464.41;5068998;28;20150;-79
2021/09/21 01:51:30;;;;;;;;;;;;;;;-144.99;94.62;52448.09;5067470;28;19977;-79
2021/09/21 01:54:11;;;;;;;;;;;;;;;-144.99;94.80;52452.16;5067832;28;19975;-77
2021/09/21 01:59:23;;;;;;;;;;;;;;;-144.99;95.49;52439.94;5071028;28;20010;-79
2021/09/21 02:01:49;;;;;;;;;;;;;;;-144.99;95.67;52417.53;5069221;28;20044;-78
2021/09/21 02:04:16;;;;;;;;;;;;;;;-144.99;95.76;52431.78;5071132;28;19983;-79
2021/09/21 02:06:43;;;;;;;;;;;;;;;-144.99;96.00;52431.78;5062665;28;19980;-80
2021/09/21 02:09:10;;;;;;;;;;;;;;;-144.99;96.19;52462.34;5067583;28;20135;-80
2021/09/21 02:11:37;;;;;;;;;;;;;;;-144.99;96.33;52444.03;5068428;28;20523;-80
2021/09/21 02:14:08;;;;;;;;;;;;;;;-144.99;96.32;52464.41;5070243;28;19980;-79
2021/09/21 02:16:34;;;;;;;;;;;;;;;-144.99;96.38;52441.97;5072738;28;19978;-80
2021/09/21 02:19:01;;;;;;;;;;;;;;;-144.99;96.29;52435.88;5069936;28;19999;-79
2021/09/21 02:21:28;;;;;;;;;;;;;;;-144.99;96.24;52464.41;5067331;28;20123;-78
2021/09/21 02:23:56;;;;;;;;;;;;;;;-144.99;96.10;52464.41;5068377;28;20088;-78
2021/09/21 02:26:24;;;;;;;;;;;;;;;-144.99;96.03;52427.72;5067756;28;20370;-79
2021/09/21 02:28:50;;;;;;;;;;;;;;;-144.99;95.98;52431.78;5071484;28;19997;-80
2021/09/21 02:31:19;;;;;;;;;;;;;;;-144.99;96.04;52454.22;5074557;28;19981;-79
2021/09/21 02:33:45;;;;;;;;;;;;;;;-144.99;96.00;52464.41;5079466;28;20469;-78
2021/09/21 02:36:12;;;;;;;;;;;;;;;-144.99;95.96;52474.59;5080057;28;19968;-77
2021/09/21 02:38:38;;;;;;;;;;;;;;;-144.99;95.82;52444.03;5080738;28;19983;-78
2021/09/21 02:41:05;;;;;;;;;;;;;;;-144.99;95.75;52415.47;5081268;28;19992;-79
2021/09/21 02:43:32;;;;;;;;;;;;;;;-144.99;95.56;52435.88;5074258;28;19942;-78
2021/09/21 02:46:01;;;;;;;;;;;;;;;-144.99;95.66;52456.25;5068632;28;19983;-78
2021/09/21 02:48:28;;;;;;;;;;;;;;;-144.99;95.82;52423.63;5065453;28;19977;-78
2021/09/21 02:50:55;;;;;;;;;;;;;;;-144.99;95.88;52415.47;5066088;28;20087;-79
2021/09/21 02:53:21;;;;;;;;;;;;;;;-144.99;95.95;52464.41;5064151;28;20166;-77
2021/09/21 02:55:48;;;;;;;;;;;;;;;-144.99;96.05;52417.53;5064149;28;19984;-77
2021/09/21 02:58:15;;;;;;;;;;;;;;;-144.99;96.07;52476.63;5053917;28;20528;-77
2021/09/21 03:00:42;;;;;;;;;;;;;;;-144.99;95.93;52460.31;5058507;28;19993;-78
2021/09/21 03:03:08;;;;;;;;;;;;;;;-144.99;95.92;52376.75;5060024;28;20513;-78
2021/09/21 03:05:42;;;;;;;;;;;;;;;-144.99;95.91;52403.25;5066628;28;20071;-77
2021/09/21 03:08:11;;;;;;;;;;;;;;;-144.99;95.95;52472.56;5064188;28;20057;-77
2021/09/21 03:10:48;;;;;;;;;;;;;;;-144.99;95.93;52431.78;5070597;28;20013;-78
2021/09/21 03:18:48;;;;;;;;;;;;;;;-144.99;95.87;52411.41;5064295;28;19999;-78
2021/09/21 03:21:16;;;;;;;;;;;;;;;-144.99;95.89;52415.47;5064059;28;20145;-77
2021/09/21 03:23:42;;;;;;;;;;;;;;;-144.99;95.92;52423.63;5062738;28;19977;-80
2021/09/21 03:26:08;;;;;;;;;;;;;;;-144.99;95.75;52427.72;5061657;28;19981;-78
2021/09/21 03:28:35;;;;;;;;;;;;;;;-144.99;96.08;52444.03;5062359;28;19999;-78
2021/09/21 03:31:02;;;;;;;;;;;;;;;-144.99;96.46;52378.78;5062389;28;20025;-78
2021/09/21 03:33:28;;;;;;;;;;;;;;;-144.99;96.63;52444.03;5064494;28;19999;-79
2021/09/21 03:35:55;;;;;;;;;;;;;;;-144.99;96.89;52448.09;5062606;28;20008;-78
2021/09/21 03:38:23;;;;;;;;;;;;;;;-144.99;96.92;52466.44;5061707;28;19973;-78
2021/09/21 03:40:49;;;;;;;;;;;;;;;-144.99;97.02;52460.31;5062750;28;19992;-77
2021/09/21 03:43:16;;;;;;;;;;;;;;;-144.99;96.93;52419.56;5065340;28;20063;-78
2021/09/21 03:45:42;;;;;;;;;;;;;;;-144.99;97.31;52452.16;5064899;28;20054;-78
2021/09/21 03:48:09;;;;;;;;;;;;;;;-144.99;97.51;52425.66;5061451;28;19985;-78
2021/09/21 03:50:36;;;;;;;;;;;;;;;-144.99;97.47;52403.25;5063643;28;19996;-77
2021/09/21 03:53:02;;;;;;;;;;;;;;;-144.99;97.60;52409.38;5059178;28;20329;-74
2021/09/21 03:55:30;;;;;;;;;;;;;;;-144.99;97.51;52427.72;5062153;28;19980;-79
2021/09/21 03:57:56;;;;;;;;;;;;;;;-144.99;97.50;52407.31;5062903;28;19977;-78
2021/09/21 04:00:23;;;;;;;;;;;;;;;-144.99;97.51;52403.25;5063807;28;19989;-80
2021/09/21 04:02:49;;;;;;;;;;;;;;;-144.99;97.46;52415.47;5064784;28;20012;-80
2021/09/21 04:05:16;;;;;;;;;;;;;;;-144.99;97.38;52454.22;5060969;28;20481;-79
2021/09/21 04:07:42;;;;;;;;;;;;;;;-144.99;97.88;52437.91;5064256;28;19973;-81
2021/09/21 04:10:09;;;;;;;;;;;;;;;-144.99;98.49;52399.19;5067770;28;20507;-79
2021/09/21 04:12:37;;;;;;;;;;;;;;;-144.99;98.75;52431.78;5063973;28;19976;-79
2021/09/21 04:15:07;;;;;;;;;;;;;;;-144.99;98.54;52452.16;5063723;28;20023;-79
2021/09/21 04:17:33;;;;;;;;;;;;;;;-144.99;98.52;52456.25;5063828;28;19957;-77
2021/09/21 04:19:59;;;;;;;;;;;;;;;-144.99;98.47;52423.63;5063799;28;19993;-79
2021/09/21 04:22:27;;;;;;;;;;;;;;;-144.99;99.17;52415.47;5060182;28;20015;-68
2021/09/21 04:24:54;;;;;;;;;;;;;;;-144.99;99.22;52450.13;5075680;28;19973;-72
2021/09/21 04:27:20;;;;;;;;;;;;;;;-144.99;100.00;52466.44;5064449;28;20072;-70
2021/09/21 04:29:54;;;;;;;;;;;;;;;-144.99;100.00;52409.38;5060591;28;19993;-71
2021/09/21 04:32:20;;;;;;;;;;;;;;;-144.99;100.00;52427.72;5058486;28;19974;-71
2021/09/21 04:34:47;;;;;;;;;;;;;;;-144.99;100.00;52395.09;5060707;28;20576;-71
2021/09/21 04:37:13;;;;;;;;;;;;;;;-144.99;100.00;52439.94;5060661;28;19988;-71
2021/09/21 04:39:41;;;;;;;;;;;;;;;-144.99;100.00;52452.16;5060247;28;20107;-70
2021/09/21 04:42:08;;;;;;;;;;;;;;;-144.99;100.00;52460.31;5060804;28;19989;-71
2021/09/21 04:44:34;;;;;;;;;;;;;;;-144.99;100.00;52452.16;5061387;28;19955;-73
2021/09/21 04:47:03;;;;;;;;;;;;;;;-144.99;100.00;52431.78;5060031;28;20428;-71
2021/09/21 04:49:32;;;;;;;;;;;;;;;-144.99;100.00;52431.78;5062600;28;20668;-71
2021/09/21 04:51:58;;;;;;;;;;;;;;;-144.99;100.00;52401.22;5060642;28;19980;-67
2021/09/21 04:54:25;;;;;;;;;;;;;;;-144.99;100.00;52435.88;5063995;28;19973;-72
2021/09/21 04:56:51;;;;;;;;;;;;;;;-144.99;100.00;52407.31;5064789;28;20059;-71
2021/09/21 04:59:17;;;;;;;;;;;;;;;-144.99;100.00;52439.94;5065864;28;19989;-77
2021/09/21 05:01:44;;;;;;;;;;;;;;;-144.99;100.00;52431.78;5066121;28;20464;-76
2021/09/21 05:04:12;;;;;;;;;;;;;;;-144.99;100.00;52435.88;5068405;28;20250;-76
2021/09/21 05:06:38;;;;;;;;;;;;;;;-144.99;100.00;52425.66;5065936;28;20420;-76
2021/09/21 05:09:09;;;;;;;;;;;;;;;-144.99;100.00;52415.47;5066008;28;20099;-76
2021/09/21 05:11:35;;;;;;;;;;;;;;;-144.99;100.00;52423.63;3668201;28;10021002;-76
2021/09/21 05:14:02;;;;;;;;;;;;;;;-144.99;100.00;52456.25;5059612;28;19978;-77
2021/09/21 05:16:28;;;;;;;;;;;;;;;-144.99;100.00;52431.78;5061287;28;19984;-77
2021/09/21 05:18:55;;;;;;;;;;;;;;;-144.99;100.00;52427.72;5061149;28;20022;-77
2021/09/21 05:21:23;;;;;;;;;;;;;;;-144.99;100.00;52395.09;5063085;28;19989;-76
2021/09/21 05:23:49;;;;;;;;;;;;;;;-144.99;100.00;52401.22;5063789;28;20020;-77
2021/09/21 05:26:17;;;;;;;;;;;;;;;-144.99;100.00;52407.31;5062713;28;19979;-77
2021/09/21 05:28:44;;;;;;;;;;;;;;;-144.99;100.00;52423.63;5058832;28;19993;-75
2021/09/21 05:31:10;;;;;;;;;;;;;;;-144.99;100.00;52386.94;5061838;28;20233;-78
2021/09/21 05:33:37;;;;;;;;;;;;;;;-144.99;99.33;52429.75;5063739;28;19981;-77
2021/09/21 05:36:03;;;;;;;;;;;;;;;-144.99;98.91;52431.78;5061106;28;19983;-79
2021/09/21 05:38:31;;;;;;;;;;;;;;;-144.99;99.13;52431.78;5059559;28;20207;-79
2021/09/21 05:40:57;;;;;;;;;;;;;;;-144.99;99.34;52446.06;5061988;28;19981;-78
2021/09/21 05:43:24;;;;;;;;;;;;;;;-144.99;99.33;52395.09;5061664;28;20376;-78
2021/09/21 05:45:50;;;;;;;;;;;;;;;-144.99;99.09;52399.19;5063403;28;19983;-74
2021/09/21 05:48:17;;;;;;;;;;;;;;;-144.99;99.14;52423.63;5062077;28;19977;-77
2021/09/21 05:50:43;;;;;;;;;;;;;;;-144.99;98.62;52386.94;5063385;28;19989;-77
2021/09/21 05:53:09;;;;;;;;;;;;;;;-144.99;98.77;52395.09;5060538;28;20343;-77
2021/09/21 05:55:37;;;;;;;;;;;;;;;-144.99;98.80;52419.56;5063113;28;19977;-76
2021/09/21 05:58:04;;;;;;;;;;;;;;;-144.99;98.35;52407.31;5061292;28;19977;-78
2021/09/21 06:00:31;;;;;;;;;;;;;;;-144.99;97.89;52439.94;5062055;28;20374;-78
2021/09/21 06:02:58;;;;;;;;;;;;;;;-144.99;97.55;52423.63;5061189;28;20634;-77
2021/09/21 06:05:24;;;;;;;;;;;;;;;-144.99;96.90;52427.72;5061935;28;19986;-77
2021/09/21 06:07:52;;;;;;;;;;;;;;;-144.99;96.68;52427.72;5058284;28;19976;-77
2021/09/21 06:10:19;;;;;;;;;;;;;;;-144.99;96.63;52372.69;5060354;28;19993;-78
2021/09/21 06:12:47;;;;;;;;;;;;;;;-144.99;96.83;52403.25;5060706;28;19977;-81
2021/09/21 06:15:14;;;;;;;;;;;;;;;-144.99;96.59;52448.09;5076062;28;20068;-80
2021/09/21 06:17:41;;;;;;;;;;;;;;;-144.99;96.04;52421.59;5077671;28;20009;-78
2021/09/21 06:20:10;;;;;;;;;;;;;;;-144.99;95.42;52431.78;5059316;28;20479;-76
2021/09/21 06:22:36;;;;;;;;;;;;;;;-144.99;95.20;52401.22;5060995;28;19993;-77
2021/09/21 06:25:03;;;;;;;;;;;;;;;-144.99;94.75;52427.72;5060518;28;20385;-81
2021/09/21 06:27:30;;;;;;;;;;;;;;;-144.99;94.08;52391.03;5062097;28;20229;-78
2021/09/21 06:30:01;;;;;;;;;;;;;;;-144.99;93.76;52423.63;5059400;28;20001;-80
2021/09/21 06:32:27;;;;;;;;;;;;;;;-144.99;93.38;52431.78;5097540;22;19996;-73
2021/09/21 06:34:54;;;;;;;;;;;;;;;-144.99;93.03;52397.13;5078289;28;20503;-72
2021/09/21 06:37:20;;;;;;;;;;;;;;;-144.99;93.05;52431.78;5075321;28;19983;-73
2021/09/21 06:39:47;;;;;;;;;;;;;;;-144.99;93.07;52378.78;5077411;28;20075;-72
2021/09/21 06:42:13;;;;;;;;;;;;;;;-144.99;92.37;52386.94;5061986;28;20008;-72
2021/09/21 06:44:40;;;;;;;;;;;;;;;-144.99;91.50;52405.28;5058313;28;20090;-71
2021/09/21 06:47:07;;;;;;;;;;;;;;;-144.99;91.54;52419.56;5058049;28;20072;-73
2021/09/21 06:49:34;;;;;;;;;;;;;;;-144.99;91.57;52415.47;5055896;28;20407;-72
2021/09/21 06:52:00;;;;;;;;;;;;;;;-144.99;91.33;52427.72;5056727;28;19993;-75
2021/09/21 06:54:27;;;;;;;;;;;;;;;-144.99;91.34;52411.41;5058146;28;19973;-74
2021/09/21 06:56:53;;;;;;;;;;;;;;;-144.99;91.43;52411.41;5058702;28;20075;-71
2021/09/21 06:59:20;;;;;;;;;;;;;;;-144.99;91.42;52415.47;5057404;28;19983;-71
2021/09/21 07:01:46;;;;;;;;;;;;;;;-144.99;91.16;52384.91;5057171;28;20040;-72
2021/09/21 07:04:14;;;;;;;;;;;;;;;-144.99;91.13;52444.03;5058276;28;20668;-73
2021/09/21 07:06:40;;;;;;;;;;;;;;;-144.99;91.10;52403.25;5056034;28;19977;-74
2021/09/21 07:09:07;;;;;;;;;;;;;;;-144.99;91.05;52395.09;5057880;28;19977;-72
2021/09/21 07:11:33;;;;;;;;;;;;;;;-144.99;90.83;52415.47;5057864;28;20012;-75
2021/09/21 07:14:00;;;;;;;;;;;;;;;-144.99;90.71;52399.19;5058632;28;19976;-72
2021/09/21 07:16:26;;;;;;;;;;;;;;;-144.99;90.55;52395.09;5058635;28;20004;-73
2021/09/21 07:18:52;;;;;;;;;;;;;;;-144.99;90.51;52433.81;5057436;28;19977;-73
2021/09/21 07:21:20;;;;;;;;;;;;;;;-144.99;90.53;52446.06;5055676;28;20483;-72
2021/09/21 07:23:48;;;;;;;;;;;;;;;-144.99;90.58;52427.72;5059389;28;19981;-75
2021/09/21 07:26:14;;;;;;;;;;;;;;;-144.99;90.28;52439.94;5053381;28;20390;-74
2021/09/21 07:28:41;;;;;;;;;;;;;;;-144.99;90.20;52397.13;5058800;28;20411;-75
2021/09/21 07:31:07;;;;;;;;;;;;;;;-144.99;89.67;52391.03;5056492;28;20000;-75
2021/09/21 07:33:33;;;;;;;;;;;;;;;-144.99;89.59;52370.63;5058301;28;19983;-75
2021/09/21 07:36:00;;;;;;;;;;;;;;;-144.99;89.60;52417.53;5056981;28;19981;-74
2021/09/21 07:38:28;;;;;;;;;;;;;;;-144.99;89.49;52399.19;5056316;28;19996;-73
2021/09/21 07:40:54;;;;;;;;;;;;;;;-144.99;89.39;52386.94;5058145;28;19999;-74
2021/09/21 07:43:21;;;;;;;;;;;;;;;-144.99;89.71;52407.31;5057028;28;19992;-74
2021/09/21 07:45:47;;;;;;;;;;;;;;;-144.99;89.88;52419.56;5057368;28;20403;-72
2021/09/21 07:48:19;;;;;;;;;;;;;;;-144.99;89.83;52350.25;5057153;28;19981;-70
2021/09/21 07:50:46;;;;;;;;;;;;;;;-144.99;89.95;52415.47;5056154;28;20119;-71
2021/09/21 07:53:12;;;;;;;;;;;;;;;-144.99;89.99;52358.41;5054058;28;20471;-73
2021/09/21 07:55:40;;;;;;;;;;;;;;;-144.99;89.78;52395.09;5057289;28;19993;-73
2021/09/21 07:58:07;;;;;;;;;;;;;;;-144.99;89.77;52425.66;5056381;28;20514;-74
2021/09/21 08:00:33;;;;;;;;;;;;;;;-144.99;89.87;52360.44;5056049;28;20146;-72
2021/09/21 08:02:59;;;;;;;;;;;;;;;-144.99;89.76;52378.78;5054759;28;20003;-73
2021/09/21 08:05:27;;;;;;;;;;;;;;;-144.99;89.62;52395.09;5054643;28;19984;-71
2021/09/21 08:07:53;;;;;;;;;;;;;;;-144.99;89.27;52370.63;5056500;28;19981;-72
2021/09/21 08:10:19;;;;;;;;;;;;;;;-144.99;89.19;52399.19;5057538;28;20474;-74
2021/09/21 08:12:47;;;;;;;;;;;;;;;-144.99;88.95;52411.41;5056153;28;20003;-72
2021/09/21 08:15:14;;;;;;;;;;;;;;;-144.99;89.04;52388.97;5059391;28;19977;-72
2021/09/21 08:17:40;;;;;;;;;;;;;;;-144.99;88.81;52399.19;5057663;28;19981;-73
2021/09/21 08:20:07;;;;;;;;;;;;;;;-144.99;88.35;52403.25;5056331;28;20459;-75
2021/09/21 08:22:34;;;;;;;;;;;;;;;-144.99;88.05;52433.81;5057094;28;19980;-74
2021/09/21 08:25:01;;;;;;;;;;;;;;;-144.99;87.75;52391.03;5057859;28;20293;-75
2021/09/21 08:27:28;;;;;;;;;;;;;;;-144.99;88.34;52391.03;5057038;28;19977;-75
2021/09/21 08:29:55;;;;;;;;;;;;;;;-144.99;88.44;52382.88;5057777;28;20396;-72
2021/09/21 08:32:22;;;;;;;;;;;;;;;-144.99;88.35;52415.47;5058462;28;20494;-75
2021/09/21 08:34:48;;;;;;;;;;;;;;;-144.99;88.20;52407.31;5055061;28;19983;-74
2021/09/21 08:37:15;;;;;;;;;;;;;;;-144.99;87.53;52419.56;5056131;28;20063;-73
2021/09/21 08:39:41;;;;;;;;;;;;;;;-144.99;87.37;52415.47;5058674;28;20533;-75
2021/09/21 08:42:07;;;;;;;;;;;;;;;-144.99;87.13;52419.56;5061601;28;20008;-74
2021/09/21 08:44:36;;;;;;;;;;;;;;;-144.99;87.18;52415.47;5059292;28;19999;-74
2021/09/21 08:47:05;;;;;;;;;;;;;;;-144.99;86.93;52409.38;5062697;28;20431;-73
2021/09/21 08:49:31;;;;;;;;;;;;;;;-144.99;86.51;52419.56;5061411;28;19984;-73
2021/09/21 08:51:59;;;;;;;;;;;;;;;-144.99;86.49;52399.19;5061058;28;19992;-75
2021/09/21 08:54:25;;;;;;;;;;;;;;;-144.99;86.62;52409.38;5060546;28;19984;-73
2021/09/21 08:56:53;;;;;;;;;;;;;;;-144.99;86.34;52399.19;5062185;28;19984;-75
2021/09/21 08:59:28;;;;;;;;;;;;;;;-144.99;85.61;52391.03;5060996;28;20216;-75
2021/09/21 09:01:54;;;;;;;;;;;;;;;-144.99;85.45;52403.25;5061350;28;20526;-74
2021/09/21 09:04:22;;;;;;;;;;;;;;;-144.99;85.10;52374.72;5062094;28;20404;-75
2021/09/21 09:06:49;;;;;;;;;;;;;;;-144.99;84.78;52395.09;5059424;28;19977;-74
2021/09/21 09:09:16;;;;;;;;;;;;;;;-144.99;83.96;52391.03;5060801;28;20023;-74
2021/09/21 09:11:46;;;;;;;;;;;;;;;-144.99;83.62;52386.94;5058297;28;19998;-74
2021/09/21 09:14:17;;;;;;;;;;;;;;;-144.99;83.61;52399.19;5061015;28;20003;-73
2021/09/21 09:16:45;;;;;;;;;;;;;;;-144.99;83.17;52378.78;5059024;28;20546;-73
2021/09/21 09:19:12;;;;;;;;;;;;;;;-144.99;83.14;52382.88;5059952;28;20080;-73
2021/09/21 09:21:43;;;;;;;;;;;;;;;-144.99;83.50;52350.25;5057078;28;19996;-74
2021/09/21 09:24:10;;;;;;;;;;;;;;;-144.99;82.99;52350.25;5057707;28;19993;-73
2021/09/21 09:26:38;;;;;;;;;;;;;;;-144.99;83.25;52386.94;5057747;28;19991;-74
2021/09/21 09:29:07;;;;;;;;;;;;;;;-144.99;82.33;52391.03;5060066;28;19981;-71
2021/09/21 09:31:35;;;;;;;;;;;;;;;-144.99;82.30;52366.56;5059118;28;20001;-71
2021/09/21 09:34:07;;;;;;;;;;;;;;;-144.99;81.95;52386.94;5059950;28;19981;-73
2021/09/21 09:36:41;;;;;;;;;;;;;;;-144.99;81.76;52391.03;5053424;28;20425;-72
2021/09/21 09:39:09;;;;;;;;;;;;;;;-144.99;81.05;52388.97;5057026;28;20415;-74
2021/09/21 09:41:36;;;;;;;;;;;;;;;-144.99;80.51;52338.03;5057650;28;20475;-72
2021/09/21 09:44:05;;;;;;;;;;;;;;;-144.99;79.83;52370.63;5055959;28;20111;-71
2021/09/21 09:46:41;;;;;;;;;;;;;;;-144.99;79.71;52368.59;5057558;28;20370;-70
2021/09/21 09:49:07;;;;;;;;;;;;;;;-144.99;79.71;52378.78;5057751;28;19976;-69
2021/09/21 09:51:34;;;;;;;;;;;;;;;-144.99;79.38;52370.63;5055983;28;20183;-71
2021/09/21 09:54:00;;;;;;;;;;;;;;;-144.99;79.95;52329.88;5060096;28;20070;-71
2021/09/21 09:56:28;;;;;;;;;;;;;;;-144.99;79.23;52417.53;5061621;28;19980;-70
2021/09/21 09:58:55;;;;;;;;;;;;;;;-144.99;78.67;52336.00;5062313;28;19973;-71
2021/09/21 10:01:21;;;;;;;;;;;;;;;-144.99;77.87;52362.50;5059503;28;20252;-70
2021/09/21 10:03:48;;;;;;;;;;;;;;;-144.99;76.96;52338.03;5057706;28;20091;-71
2021/09/21 10:06:15;;;;;;;;;;;;;;;-144.99;76.96;52346.19;5057048;28;19982;-74
2021/09/21 10:08:41;;;;;;;;;;;;;;;-144.99;76.55;52366.56;5055689;28;20563;-73
2021/09/21 10:11:07;;;;;;;;;;;;;;;-144.99;76.07;52305.41;5057879;28;19995;-73
2021/09/21 10:13:35;;;;;;;;;;;;;;;-144.99;75.72;52358.41;5061999;28;20026;-72
2021/09/21 10:16:02;;;;;;;;;;;;;;;-144.99;76.73;52378.78;5059504;28;19970;-77
2021/09/21 10:18:28;;;;;;;;;;;;;;;-144.99;76.70;52366.56;5059246;28;19987;-73
2021/09/21 10:20:59;;;;;;;;;;;;;;;-144.99;76.43;52366.56;5060582;28;20436;-73
2021/09/21 10:23:31;;;;;;;;;;;;;;;-144.99;76.23;52346.19;5063402;28;20089;-74
2021/09/21 10:26:10;;;;;;;;;;;;;;;-144.99;76.91;52362.50;5058971;28;20120;-73
2021/09/21 10:28:40;;;;;;;;;;;;;;;-144.99;76.79;52374.72;5056390;28;20491;-74
2021/09/21 10:31:11;;;;;;;;;;;;;;;-144.99;77.09;52378.78;5060858;28;20006;-74
2021/09/21 10:33:38;;;;;;;;;;;;;;;-144.99;76.56;52370.63;5058200;28;19984;-74
2021/09/21 10:36:15;;;;;;;;;;;;;;;-144.99;76.93;52346.19;5059160;28;20310;-73
2021/09/21 10:38:51;;;;;;;;;;;;;;;-144.99;77.29;52374.72;5057609;28;19978;-72
2021/09/21 10:41:18;;;;;;;;;;;;;;;-144.99;77.44;52360.44;5059118;28;20089;-75
2021/09/21 10:43:47;;;;;;;;;;;;;;;-144.99;77.50;52346.19;5058987;28;19997;-72
2021/09/21 10:46:15;;;;;;;;;;;;;;;-144.99;77.62;52374.72;5058908;28;19980;-75
2021/09/21 10:48:44;;;;;;;;;;;;;;;-144.99;77.83;52380.84;5058968;28;19976;-73
2021/09/21 10:51:11;;;;;;;;;;;;;;;-144.99;78.04;52380.84;5047570;28;19993;-74
2021/09/21 10:53:37;;;;;;;;;;;;;;;-144.99;78.17;52378.78;5057181;28;20050;-76
2021/09/21 10:56:05;;;;;;;;;;;;;;;-144.99;78.15;52370.63;5059412;28;19980;-74
2021/09/21 10:58:32;;;;;;;;;;;;;;;-144.99;77.93;52423.63;5055435;28;19987;-75
2021/09/21 11:01:00;;;;;;;;;;;;;;;-144.99;78.26;52342.09;5055786;28;20504;-71
2021/09/21 11:03:28;;;;;;;;;;;;;;;-144.99;78.53;52411.41;5056812;28;19995;-73
2021/09/21 11:05:55;;;;;;;;;;;;;;;-144.99;78.96;52384.91;5055985;28;19979;-72
2021/09/21 11:08:26;;;;;;;;;;;;;;;-144.99;78.78;52401.22;5058318;28;20274;-74
2021/09/21 11:10:59;;;;;;;;;;;;;;;-144.99;78.57;52386.94;5057490;28;20397;-76
2021/09/21 11:13:26;;;;;;;;;;;;;;;-144.99;78.63;52360.44;5058578;28;20463;-75
2021/09/21 11:15:53;;;;;;;;;;;;;;;-144.99;78.57;52368.59;5059291;28;20053;-72
2021/09/21 11:18:20;;;;;;;;;;;;;;;-144.99;78.82;52395.09;5057914;28;20373;-74
2021/09/21 11:20:48;;;;;;;;;;;;;;;-144.99;78.80;52346.19;5057579;28;19976;-74
2021/09/21 11:23:15;;;;;;;;;;;;;;;-144.99;79.65;52378.78;5056914;28;19997;-75
2021/09/21 11:25:42;;;;;;;;;;;;;;;-144.99;79.26;52374.72;5057761;28;19971;-75
2021/09/21 11:28:09;;;;;;;;;;;;;;;-144.99;79.10;52391.03;5058246;28;19987;-75
2021/09/21 11:30:35;;;;;;;;;;;;;;;-144.99;79.58;52378.78;5056279;28;19984;-75
2021/09/21 11:33:10;;;;;;;;;;;;;;;-144.99;79.25;52382.88;5057942;28;19984;-72
2021/09/21 11:35:38;;;;;;;;;;;;;;;-144.99;79.25;52386.94;5053325;28;20001;-74
2021/09/21 11:38:04;;;;;;;;;;;;;;;-144.99;79.14;52362.50;5056346;28;20082;-75
2021/09/21 11:40:32;;;;;;;;;;;;;;;-144.99;79.15;52350.25;5056620;28;19995;-75
2021/09/21 11:42:59;;;;;;;;;;;;;;;-144.99;79.32;52403.25;5058562;28;20003;-75
2021/09/21 11:45:26;;;;;;;;;;;;;;;-144.99;79.05;52360.44;5058279;28;19981;-75
2021/09/21 11:47:52;;;;;;;;;;;;;;;-144.99;79.10;52329.88;5057427;28;19986;-75
2021/09/21 11:50:20;;;;;;;;;;;;;;;-144.99;79.09;52366.56;5056775;28;19976;-75
2021/09/21 11:52:49;;;;;;;;;;;;;;;-144.99;79.10;52338.03;5058606;28;19992;-75
2021/09/21 11:55:16;;;;;;;;;;;;;;;-144.99;79.02;52366.56;5062732;28;19977;-74
2021/09/21 11:57:43;;;;;;;;;;;;;;;-144.99;79.16;52325.81;5061821;28;20053;-75
2021/09/21 12:00:19;;;;;;;;;;;;;;;-144.99;79.28;52336.00;5061421;28;20001;-74
2021/09/21 12:02:45;;;;;;;;;;;;;;;-144.99;79.17;52380.84;5051613;28;20488;-74
2021/09/21 12:05:12;;;;;;;;;;;;;;;-144.99;79.37;52346.19;5054096;28;20451;-74
2021/09/21 12:07:39;;;;;;;;;;;;;;;-144.99;79.32;52366.56;5053525;28;20609;-74
2021/09/21 12:10:08;;;;;;;;;;;;;;;-144.99;79.39;52378.78;5056436;28;20039;-74
2021/09/21 12:12:34;;;;;;;;;;;;;;;-144.99;79.93;52378.78;5055164;28;20424;-75
2021/09/21 12:15:01;;;;;;;;;;;;;;;-144.99;79.55;52395.09;5055930;28;20281;-73
2021/09/21 12:17:28;;;;;;;;;;;;;;;-144.99;79.81;52374.72;5060498;28;20072;-74
2021/09/21 12:19:58;;;;;;;;;;;;;;;-144.99;79.87;52362.50;5061806;28;19961;-72
2021/09/21 12:22:25;;;;;;;;;;;;;;;-144.99;80.16;52346.19;5057973;28;19997;-72
2021/09/21 12:24:52;;;;;;;;;;;;;;;-144.99;79.45;52372.69;5061381;28;20072;-76
2021/09/21 12:27:23;;;;;;;;;;;;;;;-144.99;79.65;52342.09;5061267;28;19976;-74
2021/09/21 12:29:49;;;;;;;;;;;;;;;-144.99;79.25;52311.53;5059793;28;20571;-75
2021/09/21 12:32:16;;;;;;;;;;;;;;;-144.99;79.35;52362.50;5058688;28;20548;-73
2021/09/21 12:34:43;;;;;;;;;;;;;;;-144.99;78.47;52374.72;5098107;22;20470;-81